< < Back
Terminal Aerodrome Forecast


Current Version              Previous Versions:   1  2  3  4  5  6  7  8  9  

Terminal Aerodrome Forecast

157
FTUS44 KMOB 012300
TAFMOB
TAF
KMOB 012334Z 0200/0224 17007KT P6SM FEW030 SCT150 OVC250
     FM020600 17004KT P6SM SCT250
     FM021800 18006KT P6SM SCT050=

Latest METAR

232
SAUS80 KWBC 020200
MTRMOB
METAR KMOB 020156Z 16006KT 10SM FEW030 BKN250 27/25 A3008 RMK AO2 SLP183
T02720250


USA.gov is the U.S. government's official web portal to all federal, state and local government web resources and services.